createdAt,value
2019-05-05T00:02:31.828Z,10.53
2019-05-05T00:04:59.768Z,12.00
2019-05-05T00:07:27.725Z,11.27
2019-05-05T00:09:55.082Z,10.53
2019-05-05T00:12:39.599Z,11.17
2019-05-05T00:15:07.866Z,12.50
2019-05-05T00:17:34.295Z,10.87
2019-05-05T00:20:00.479Z,13.27
2019-05-05T00:22:26.530Z,12.60
2019-05-05T00:24:54.493Z,12.83
2019-05-05T00:27:20.578Z,14.80
2019-05-05T00:29:46.726Z,13.53
2019-05-05T00:32:15.092Z,12.80
2019-05-05T00:34:40.824Z,11.87
2019-05-05T00:37:06.874Z,12.37
2019-05-05T00:39:34.491Z,12.40
2019-05-05T00:42:00.848Z,12.93
2019-05-05T00:44:26.920Z,12.13
2019-05-05T00:46:55.100Z,13.03
2019-05-05T00:49:21.522Z,12.07
2019-05-05T00:51:47.568Z,11.70
2019-05-05T00:54:14.854Z,13.03
2019-05-05T00:56:41.101Z,13.77
2019-05-05T00:59:09.042Z,14.90
2019-05-05T01:01:55.304Z,13.57
2019-05-05T01:04:26.324Z,12.73
2019-05-05T01:06:54.326Z,9.77
2019-05-05T01:09:22.231Z,12.30
2019-05-05T01:11:48.391Z,11.40
2019-05-05T01:14:14.526Z,11.60
2019-05-05T01:16:40.726Z,12.97
2019-05-05T01:19:06.864Z,13.90
2019-05-05T01:21:34.910Z,15.70
2019-05-05T01:24:01.018Z,17.13
2019-05-05T01:26:27.051Z,18.87
2019-05-05T01:28:53.223Z,18.40
2019-05-05T01:31:20.237Z,17.43
2019-05-05T01:33:54.234Z,18.90
2019-05-05T01:36:20.367Z,17.37
2019-05-05T01:38:57.262Z,18.63
2019-05-05T01:41:34.877Z,19.97
2019-05-05T01:44:01.430Z,18.83
2019-05-05T01:46:27.679Z,19.80
2019-05-05T01:48:54.932Z,21.40
2019-05-05T01:51:21.074Z,22.70
2019-05-05T01:53:47.136Z,20.03
2019-05-05T01:56:15.283Z,21.00
2019-05-05T01:58:41.542Z,23.57
2019-05-05T02:01:07.570Z,22.47
2019-05-05T02:03:35.029Z,20.97
2019-05-05T02:06:01.174Z,22.13
2019-05-05T02:08:27.293Z,24.27
2019-05-05T02:10:54.815Z,22.40
2019-05-05T02:13:21.040Z,22.60
2019-05-05T02:15:47.202Z,21.43
2019-05-05T02:18:14.891Z,22.37
2019-05-05T02:20:54.430Z,21.80
2019-05-05T02:23:20.628Z,22.23
2019-05-05T02:25:47.007Z,20.77
2019-05-05T02:28:14.937Z,21.40
2019-05-05T02:31:01.702Z,22.67
2019-05-05T02:33:27.836Z,22.93
2019-05-05T02:35:55.692Z,22.10
2019-05-05T02:38:22.062Z,19.70
2019-05-05T02:40:48.922Z,20.27
2019-05-05T02:43:17.489Z,21.63
2019-05-05T02:45:55.372Z,22.87
2019-05-05T02:48:24.966Z,22.73
2019-05-05T02:51:00.744Z,23.10
2019-05-05T02:53:25.239Z,22.20
2019-05-05T02:55:54.679Z,20.87
2019-05-05T02:58:21.415Z,18.40
2019-05-05T03:00:54.145Z,17.17
2019-05-05T03:03:20.530Z,18.20
2019-05-05T03:05:46.911Z,19.97
2019-05-05T03:08:13.909Z,19.43
2019-05-05T03:10:40.322Z,18.27
2019-05-05T03:13:06.659Z,19.90
2019-05-05T03:15:55.142Z,16.67
2019-05-05T03:18:21.818Z,15.67
2019-05-05T03:21:01.645Z,15.63
2019-05-05T03:23:17.004Z,16.33
2019-05-05T03:25:44.041Z,19.87
2019-05-05T03:28:10.231Z,18.40
2019-05-05T03:30:36.495Z,16.37
2019-05-05T03:33:05.551Z,17.03
2019-05-05T03:35:30.701Z,18.07
2019-05-05T03:37:56.834Z,18.03
2019-05-05T03:40:25.180Z,16.03
2019-05-05T03:42:53.611Z,20.63
2019-05-05T03:45:24.413Z,19.13
2019-05-05T03:47:50.551Z,20.43
2019-05-05T03:50:16.819Z,20.73
2019-05-05T03:52:43.920Z,19.03
2019-05-05T03:55:10.233Z,21.50
2019-05-05T03:57:37.146Z,18.23
2019-05-05T04:00:06.184Z,16.77
2019-05-05T04:02:34.252Z,16.30
2019-05-05T04:05:03.989Z,14.97
2019-05-05T04:07:30.399Z,18.30
2019-05-05T04:09:56.526Z,17.83
2019-05-05T04:12:24.166Z,18.83
2019-05-05T04:14:50.378Z,18.97
2019-05-05T04:17:18.355Z,19.20
2019-05-05T04:19:46.262Z,21.97
2019-05-05T04:22:13.563Z,20.47
2019-05-05T04:24:39.851Z,21.50
2019-05-05T04:27:05.984Z,19.23
2019-05-05T04:29:34.212Z,22.43
2019-05-05T04:32:00.016Z,24.40
2019-05-05T04:34:26.086Z,20.07
2019-05-05T04:36:52.164Z,21.93
2019-05-05T04:39:18.327Z,19.97
2019-05-05T04:41:44.352Z,20.73
2019-05-05T04:44:10.502Z,20.90
2019-05-05T04:46:36.557Z,21.47
2019-05-05T04:49:07.557Z,20.40
2019-05-05T04:51:47.080Z,19.57
2019-05-05T04:54:17.478Z,20.67
2019-05-05T04:56:44.756Z,19.43
2019-05-05T04:59:10.989Z,20.50
2019-05-05T05:01:37.110Z,20.97
2019-05-05T05:04:14.112Z,19.20
2019-05-05T05:06:43.625Z,21.10
2019-05-05T05:09:09.830Z,20.37
2019-05-05T05:11:35.865Z,21.33
2019-05-05T05:14:03.881Z,21.50
2019-05-05T05:16:29.992Z,20.87
2019-05-05T05:18:56.136Z,19.33
2019-05-05T05:21:23.715Z,19.30
2019-05-05T05:23:49.957Z,19.17
2019-05-05T05:26:16.097Z,19.57
2019-05-05T05:28:42.119Z,16.73
2019-05-05T05:31:08.172Z,15.43
2019-05-05T05:33:34.582Z,18.13
2019-05-05T05:36:00.869Z,19.80
2019-05-05T05:38:26.890Z,18.20
2019-05-05T05:40:54.882Z,16.03
2019-05-05T05:43:25.838Z,17.80
2019-05-05T05:45:56.337Z,17.20
2019-05-05T05:48:27.383Z,16.80
2019-05-05T05:50:55.311Z,17.67
2019-05-05T05:53:21.390Z,17.53
2019-05-05T05:55:47.418Z,16.97
2019-05-05T05:58:14.188Z,17.43
2019-05-05T06:00:43.718Z,16.73
2019-05-05T06:03:09.588Z,15.43
2019-05-05T06:05:35.627Z,16.17
2019-05-05T06:08:01.690Z,16.37
2019-05-05T06:10:27.830Z,16.07
2019-05-05T06:12:54.682Z,15.30
2019-05-05T06:15:20.963Z,14.70
2019-05-05T06:17:46.987Z,14.10
2019-05-05T06:20:14.521Z,15.10
2019-05-05T06:22:40.816Z,14.27
2019-05-05T06:25:07.457Z,13.57
2019-05-05T06:27:34.239Z,13.93
2019-05-05T06:30:00.550Z,13.30
2019-05-05T06:32:26.601Z,12.10
2019-05-05T06:34:53.530Z,12.60
2019-05-05T06:37:19.789Z,11.80
2019-05-05T06:39:47.711Z,11.40
2019-05-05T06:42:34.234Z,11.83
2019-05-05T06:45:04.021Z,10.73
2019-05-05T06:47:33.886Z,11.10
2019-05-05T06:49:59.716Z,10.10
2019-05-05T06:52:25.860Z,11.63
2019-05-05T06:54:51.908Z,10.63
2019-05-05T06:57:18.992Z,11.20
2019-05-05T06:59:45.032Z,10.03
2019-05-05T07:02:11.070Z,8.93
2019-05-05T07:04:37.159Z,9.40
2019-05-05T07:07:05.183Z,9.20
2019-05-05T07:09:33.454Z,8.83
2019-05-05T07:11:59.196Z,9.27
2019-05-05T07:14:25.248Z,9.50
2019-05-05T07:16:51.296Z,9.17
2019-05-05T07:19:17.524Z,10.77
2019-05-05T07:21:43.736Z,9.67
2019-05-05T07:24:09.935Z,8.77
2019-05-05T07:26:35.995Z,10.73
2019-05-05T07:29:04.587Z,10.00
2019-05-05T07:31:30.769Z,9.80
2019-05-05T07:33:56.826Z,9.70
2019-05-05T07:36:34.213Z,9.43
2019-05-05T07:39:00.267Z,9.17
2019-05-05T07:41:26.379Z,9.73
2019-05-05T07:43:54.183Z,10.10
2019-05-05T07:46:20.272Z,9.67
2019-05-05T07:48:46.320Z,11.40
2019-05-05T07:51:14.143Z,10.40
2019-05-05T07:53:40.338Z,10.70
2019-05-05T07:56:07.702Z,9.30
2019-05-05T07:58:34.516Z,8.57
2019-05-05T08:01:00.699Z,9.20
2019-05-05T08:03:26.759Z,7.57
2019-05-05T08:05:54.527Z,9.87
2019-05-05T08:08:20.734Z,25.53
2019-05-05T08:10:46.747Z,34.37
2019-05-05T08:13:14.123Z,33.53
2019-05-05T08:15:56.034Z,35.63
2019-05-05T08:18:28.590Z,25.37
2019-05-05T08:20:56.546Z,32.77
2019-05-05T08:23:32.315Z,34.80
2019-05-05T08:25:57.465Z,24.13
2019-05-05T08:28:28.177Z,27.73
2019-05-05T08:30:59.124Z,19.40
2019-05-05T08:33:25.187Z,15.30
2019-05-05T08:35:51.298Z,11.37
2019-05-05T08:38:17.340Z,10.83
2019-05-05T08:40:44.305Z,12.27
2019-05-05T08:43:10.341Z,12.57
2019-05-05T08:45:36.535Z,8.90
2019-05-05T08:48:04.895Z,11.33
2019-05-05T08:50:30.933Z,14.23
2019-05-05T08:52:56.992Z,9.90
2019-05-05T08:55:24.579Z,11.83
2019-05-05T08:57:51.064Z,8.73
2019-05-05T09:00:19.132Z,8.30
2019-05-05T09:02:45.161Z,8.00
2019-05-05T09:05:11.495Z,8.47
2019-05-05T09:07:37.601Z,8.83
2019-05-05T09:10:04.752Z,8.20
2019-05-05T09:12:30.843Z,8.00
2019-05-05T09:14:56.899Z,6.35
2019-05-05T09:17:24.378Z,5.75
2019-05-05T09:19:50.968Z,5.37
2019-05-05T09:22:17.016Z,4.47
2019-05-05T09:24:47.912Z,4.70
2019-05-05T09:27:21.718Z,4.80
2019-05-05T09:29:47.796Z,5.10
2019-05-05T09:32:14.045Z,5.35
2019-05-05T09:34:40.349Z,6.87
2019-05-05T09:37:06.612Z,4.92
2019-05-05T09:39:34.538Z,3.92
2019-05-05T09:42:01.112Z,5.10
2019-05-05T09:44:27.259Z,6.67
2019-05-05T09:46:53.840Z,5.40
2019-05-05T09:49:20.081Z,5.03
2019-05-05T09:51:46.326Z,3.92
2019-05-05T09:54:15.069Z,4.30
2019-05-05T09:56:41.745Z,4.05
2019-05-05T09:59:07.781Z,3.95
2019-05-05T10:01:33.967Z,3.47
2019-05-05T10:04:01.999Z,3.72
2019-05-05T10:06:28.027Z,3.83
2019-05-05T10:08:54.094Z,3.55
2019-05-05T10:11:20.132Z,3.60
2019-05-05T10:13:46.256Z,3.60
2019-05-05T10:16:14.247Z,3.30
2019-05-05T10:18:40.233Z,3.85
2019-05-05T10:21:06.263Z,4.90
2019-05-05T10:23:34.283Z,3.87
2019-05-05T10:26:04.262Z,3.77
2019-05-05T10:28:30.276Z,3.10
2019-05-05T10:30:56.352Z,4.05
2019-05-05T10:33:24.208Z,3.22
2019-05-05T10:35:50.388Z,3.60
2019-05-05T10:38:16.422Z,3.70
2019-05-05T10:40:44.415Z,2.80
2019-05-05T10:43:10.522Z,3.45
2019-05-05T10:45:36.548Z,3.45
2019-05-05T10:48:04.114Z,3.80
2019-05-05T10:50:33.903Z,4.00
2019-05-05T10:53:00.015Z,3.55
2019-05-05T10:55:26.048Z,4.20
2019-05-05T10:57:54.070Z,4.10
2019-05-05T11:00:39.963Z,3.42
2019-05-05T11:03:06.049Z,4.97
2019-05-05T11:05:33.965Z,4.05
2019-05-05T11:08:01.059Z,3.80
2019-05-05T11:10:31.452Z,3.05
2019-05-05T11:12:57.722Z,3.22
2019-05-05T11:15:24.685Z,2.70
2019-05-05T11:17:50.817Z,2.60
2019-05-05T11:20:17.058Z,3.75
2019-05-05T11:22:43.808Z,4.00
2019-05-05T11:25:10.189Z,3.10
2019-05-05T11:27:36.225Z,3.47
2019-05-05T11:30:14.291Z,3.30
2019-05-05T11:32:59.455Z,2.72
2019-05-05T11:35:27.398Z,2.72
2019-05-05T11:37:54.282Z,2.85
2019-05-05T11:40:32.848Z,3.60
2019-05-05T11:42:58.890Z,2.77
2019-05-05T11:45:24.961Z,3.00
2019-05-05T11:47:51.004Z,3.37
2019-05-05T11:50:17.034Z,3.37
2019-05-05T11:52:44.401Z,2.60
2019-05-05T11:55:12.363Z,4.40
2019-05-05T11:57:38.622Z,2.58
2019-05-05T12:00:05.764Z,2.67
2019-05-05T12:02:33.490Z,2.45
2019-05-05T12:04:59.693Z,2.60
2019-05-05T12:07:25.750Z,3.15
2019-05-05T12:09:54.876Z,3.83
2019-05-05T12:12:21.089Z,2.10
2019-05-05T12:14:47.326Z,2.77
2019-05-05T12:17:15.289Z,3.17
2019-05-05T12:19:43.406Z,3.72
2019-05-05T12:22:09.447Z,4.20
2019-05-05T12:24:37.373Z,2.80
2019-05-05T12:27:10.927Z,2.22
2019-05-05T12:29:37.646Z,4.05
2019-05-05T12:32:03.710Z,4.83
2019-05-05T12:34:29.756Z,2.30
2019-05-05T12:36:55.799Z,2.80
2019-05-05T12:39:21.868Z,4.75
2019-05-05T12:41:47.904Z,3.02
2019-05-05T12:44:15.850Z,2.67
2019-05-05T12:46:44.240Z,3.87
2019-05-05T12:49:13.837Z,2.67
2019-05-05T12:51:40.031Z,2.80
2019-05-05T12:54:06.188Z,2.70
2019-05-05T12:56:34.024Z,3.80
2019-05-05T12:59:03.737Z,3.52
2019-05-05T13:01:33.582Z,2.92
2019-05-05T13:03:59.797Z,3.70
2019-05-05T13:06:25.848Z,3.02
2019-05-05T13:08:51.889Z,3.25
2019-05-05T13:11:18.673Z,2.87
2019-05-05T13:13:44.922Z,2.85
2019-05-05T13:16:10.993Z,2.50
2019-05-05T13:18:37.034Z,2.60
2019-05-05T13:21:21.634Z,2.02
2019-05-05T13:23:49.600Z,2.72
2019-05-05T13:26:20.615Z,4.33
2019-05-05T13:28:46.742Z,2.50
2019-05-05T13:31:13.884Z,5.30
2019-05-05T13:33:40.168Z,3.15
2019-05-05T13:36:06.243Z,2.60
2019-05-05T13:38:34.274Z,2.40
2019-05-05T13:41:00.463Z,3.00
2019-05-05T13:43:26.498Z,3.22
2019-05-05T13:46:09.545Z,2.00
2019-05-05T13:48:35.610Z,2.47
2019-05-05T13:51:04.268Z,2.58
2019-05-05T13:53:30.507Z,1.90
2019-05-05T13:56:08.902Z,2.10
2019-05-05T13:58:24.985Z,2.33
2019-05-05T14:00:51.054Z,2.50
2019-05-05T14:03:17.217Z,3.27
2019-05-05T14:05:43.784Z,2.72
2019-05-05T14:08:09.916Z,2.58
2019-05-05T14:10:35.971Z,3.83
2019-05-05T14:13:03.732Z,3.45
2019-05-05T14:15:30.072Z,3.45
2019-05-05T14:17:56.114Z,3.20
2019-05-05T14:20:23.952Z,3.55
2019-05-05T14:22:51.292Z,5.33
2019-05-05T14:25:19.442Z,3.02
2019-05-05T14:27:45.516Z,2.87
2019-05-05T14:30:14.803Z,3.50
2019-05-05T14:32:43.793Z,4.85
2019-05-05T14:35:14.165Z,4.35
2019-05-05T14:37:44.827Z,3.27
2019-05-05T14:40:11.604Z,3.35
2019-05-05T14:42:37.728Z,6.08
2019-05-05T14:45:04.891Z,5.35
2019-05-05T14:47:31.051Z,6.37
2019-05-05T14:49:57.129Z,6.60
2019-05-05T14:52:24.620Z,8.60
2019-05-05T14:54:50.916Z,5.78
2019-05-05T14:57:17.405Z,5.00
2019-05-05T14:59:43.464Z,4.00
2019-05-05T15:02:09.587Z,5.55
2019-05-05T15:04:37.574Z,4.60
2019-05-05T15:07:11.005Z,8.23
2019-05-05T15:09:38.954Z,5.92
2019-05-05T15:12:14.330Z,4.05
2019-05-05T15:14:40.524Z,3.92
2019-05-05T15:17:06.605Z,4.30
2019-05-05T15:19:34.018Z,3.77
2019-05-05T15:22:00.191Z,3.50
2019-05-05T15:24:26.231Z,3.52
2019-05-05T15:26:54.852Z,3.62
2019-05-05T15:29:20.250Z,5.20
2019-05-05T15:31:46.335Z,3.70
2019-05-05T15:34:13.095Z,3.85
2019-05-05T15:36:39.246Z,3.45
2019-05-05T15:39:06.679Z,3.33
2019-05-05T15:41:34.153Z,2.98
2019-05-05T15:44:00.366Z,3.52
2019-05-05T15:46:26.428Z,2.37
2019-05-05T15:48:54.428Z,2.42
2019-05-05T15:51:20.431Z,5.00
2019-05-05T15:53:46.460Z,3.58
2019-05-05T15:56:13.878Z,3.52
2019-05-05T15:58:40.146Z,3.08
2019-05-05T16:01:06.214Z,5.58
2019-05-05T16:03:32.347Z,4.35
2019-05-05T16:05:58.480Z,3.30
2019-05-05T16:08:24.534Z,3.02
2019-05-05T16:10:50.617Z,6.58
2019-05-05T16:13:16.657Z,27.58
2019-05-05T16:15:44.585Z,25.62
2019-05-05T16:18:15.543Z,15.30
2019-05-05T16:20:44.387Z,5.15
2019-05-05T16:23:14.296Z,3.67
2019-05-05T16:25:41.752Z,2.98
2019-05-05T16:28:07.894Z,3.15
2019-05-05T16:30:33.964Z,3.00
2019-05-05T16:33:00.090Z,3.92
2019-05-05T16:35:26.172Z,3.27
2019-05-05T16:37:52.216Z,3.07
2019-05-05T16:40:18.470Z,2.90
2019-05-05T16:42:44.531Z,3.57
2019-05-05T16:45:11.018Z,2.93
2019-05-05T16:47:37.129Z,3.37
2019-05-05T16:50:07.359Z,3.70
2019-05-05T16:52:35.535Z,4.17
2019-05-05T16:55:05.036Z,3.17
2019-05-05T16:57:34.224Z,4.20
2019-05-05T16:59:59.127Z,2.67
2019-05-05T17:02:25.177Z,2.43
2019-05-05T17:04:51.260Z,2.70
2019-05-05T17:07:17.401Z,2.70
2019-05-05T17:09:43.763Z,2.50
2019-05-05T17:12:09.970Z,2.20
2019-05-05T17:14:50.791Z,2.60
2019-05-05T17:17:36.925Z,2.90
2019-05-05T17:20:07.047Z,2.93
2019-05-05T17:22:35.120Z,3.07
2019-05-05T17:25:01.812Z,2.70
2019-05-05T17:27:27.870Z,3.13
2019-05-05T17:29:54.016Z,3.97
2019-05-05T17:32:20.082Z,2.97
2019-05-05T17:34:46.152Z,2.60
2019-05-05T17:37:13.466Z,3.77
2019-05-05T17:39:41.512Z,2.50
2019-05-05T17:42:09.436Z,2.47
2019-05-05T17:44:52.075Z,3.00
2019-05-05T17:47:24.466Z,2.20
2019-05-05T17:50:04.012Z,2.70
2019-05-05T17:52:46.733Z,3.53
2019-05-05T17:55:31.166Z,3.60
2019-05-05T17:58:01.974Z,3.50
2019-05-05T18:00:26.907Z,3.00
2019-05-05T18:02:53.448Z,2.50
2019-05-05T18:05:21.522Z,3.00
2019-05-05T18:07:49.352Z,3.00
2019-05-05T18:10:20.447Z,3.00
2019-05-05T18:13:03.691Z,2.80
2019-05-05T18:15:48.402Z,3.10
2019-05-05T18:18:14.467Z,2.83
2019-05-05T18:20:40.511Z,2.50
2019-05-05T18:23:06.582Z,2.50
2019-05-05T18:25:34.213Z,2.30
2019-05-05T18:28:13.713Z,2.30
2019-05-05T18:30:28.540Z,2.10
2019-05-05T18:32:54.588Z,2.30
2019-05-05T18:35:20.648Z,2.10
2019-05-05T18:37:46.711Z,2.00
2019-05-05T18:40:14.236Z,2.10
2019-05-05T18:42:40.617Z,2.60
2019-05-05T18:45:08.950Z,2.77
2019-05-05T18:47:34.977Z,2.33
2019-05-05T18:50:01.045Z,2.40
2019-05-05T18:52:27.106Z,2.37
2019-05-05T18:54:54.460Z,2.10
2019-05-05T18:57:20.886Z,2.20
2019-05-05T18:59:46.960Z,2.13
2019-05-05T19:02:14.956Z,2.30
2019-05-05T19:04:42.915Z,3.10
2019-05-05T19:07:10.839Z,2.40
2019-05-05T19:09:36.922Z,2.40
2019-05-05T19:12:04.085Z,2.30
2019-05-05T19:14:30.361Z,2.40
2019-05-05T19:16:56.494Z,4.13
2019-05-05T19:19:23.693Z,2.40
2019-05-05T19:21:54.605Z,2.10
2019-05-05T19:24:20.343Z,2.50
2019-05-05T19:26:46.608Z,2.73
2019-05-05T19:29:13.530Z,2.50
2019-05-05T19:31:39.780Z,2.80
2019-05-05T19:34:05.889Z,2.83
2019-05-05T19:36:34.147Z,2.70
2019-05-05T19:38:59.916Z,2.60
2019-05-05T19:41:25.957Z,3.00
2019-05-05T19:43:54.366Z,2.43
2019-05-05T19:46:23.499Z,2.43
2019-05-05T19:48:49.568Z,2.50
2019-05-05T19:51:17.508Z,2.63
2019-05-05T19:53:44.625Z,2.70
2019-05-05T19:56:10.940Z,2.53
2019-05-05T19:58:37.012Z,2.40
2019-05-05T20:01:04.567Z,2.67
2019-05-05T20:03:31.104Z,2.60
2019-05-05T20:05:57.280Z,2.13
2019-05-05T20:08:24.018Z,2.10
2019-05-05T20:10:51.406Z,2.77
2019-05-05T20:13:17.469Z,2.40
2019-05-05T20:15:45.465Z,2.50
2019-05-05T20:18:11.558Z,2.50
2019-05-05T20:20:37.693Z,2.60
2019-05-05T20:23:04.249Z,2.60
2019-05-05T20:25:30.547Z,2.50
2019-05-05T20:27:56.594Z,2.57
2019-05-05T20:30:24.676Z,2.63
2019-05-05T20:32:56.318Z,2.40
2019-05-05T20:35:24.446Z,2.30
2019-05-05T20:37:54.105Z,3.53
2019-05-05T20:40:24.340Z,3.70
2019-05-05T20:42:50.227Z,4.20
2019-05-05T20:45:18.167Z,2.93
2019-05-05T20:47:44.230Z,3.30
2019-05-05T20:50:10.767Z,4.13
2019-05-05T20:52:36.809Z,3.73
2019-05-05T20:55:04.851Z,3.67
2019-05-05T20:57:31.019Z,3.20
2019-05-05T20:59:57.194Z,3.07
2019-05-05T21:02:24.352Z,2.73
2019-05-05T21:04:50.578Z,3.00
2019-05-05T21:07:16.605Z,2.37
2019-05-05T21:09:42.710Z,3.67
2019-05-05T21:12:08.737Z,3.50
2019-05-05T21:14:37.891Z,4.23
2019-05-05T21:17:04.075Z,3.23
2019-05-05T21:19:30.347Z,3.20
2019-05-05T21:21:58.402Z,2.90
2019-05-05T21:24:24.540Z,4.10
2019-05-05T21:26:52.566Z,3.73
2019-05-05T21:29:18.658Z,3.20
2019-05-05T21:31:44.705Z,3.03
2019-05-05T21:34:10.761Z,2.90
2019-05-05T21:36:36.927Z,2.83
2019-05-05T21:39:08.089Z,2.97
2019-05-05T21:41:34.223Z,2.90
2019-05-05T21:44:00.267Z,3.03
2019-05-05T21:46:26.295Z,2.70
2019-05-05T21:48:54.268Z,2.60
2019-05-05T21:51:34.989Z,2.60
2019-05-05T21:54:09.009Z,2.43
2019-05-05T21:56:45.734Z,2.57
2019-05-05T21:59:14.042Z,2.80
2019-05-05T22:01:41.167Z,2.70
2019-05-05T22:04:07.435Z,2.70
2019-05-05T22:06:33.713Z,2.47
2019-05-05T22:08:59.850Z,2.87
2019-05-05T22:11:25.920Z,3.03
2019-05-05T22:13:53.934Z,3.10
2019-05-05T22:16:19.902Z,3.30
2019-05-05T22:18:46.691Z,3.03
2019-05-05T22:21:20.303Z,2.70
2019-05-05T22:23:48.461Z,3.10
2019-05-05T22:26:15.121Z,2.83
2019-05-05T22:28:41.250Z,3.07
2019-05-05T22:31:07.298Z,3.53
2019-05-05T22:33:33.998Z,3.10
2019-05-05T22:36:00.402Z,2.97
2019-05-05T22:38:26.477Z,2.60
2019-05-05T22:40:54.443Z,3.30
2019-05-05T22:43:20.509Z,3.20
2019-05-05T22:45:46.652Z,2.90
2019-05-05T22:48:14.358Z,2.67
2019-05-05T22:50:40.618Z,2.93
2019-05-05T22:53:06.707Z,2.30
2019-05-05T22:55:34.384Z,2.80
2019-05-05T22:58:00.582Z,3.10
2019-05-05T23:00:29.736Z,2.50
2019-05-05T23:03:13.799Z,2.50
2019-05-05T23:05:43.825Z,2.87
2019-05-05T23:08:09.676Z,2.87
2019-05-05T23:10:35.729Z,2.60
2019-05-05T23:13:03.860Z,2.50
2019-05-05T23:15:29.709Z,2.80
2019-05-05T23:17:57.650Z,2.87
2019-05-05T23:20:57.804Z,2.70
2019-05-05T23:23:31.297Z,3.23
2019-05-05T23:25:59.226Z,3.03
2019-05-05T23:28:26.487Z,2.83
2019-05-05T23:30:54.576Z,2.67
2019-05-05T23:33:20.620Z,2.80
2019-05-05T23:35:46.690Z,2.50
2019-05-05T23:38:14.353Z,2.60
2019-05-05T23:40:40.594Z,3.30
2019-05-05T23:43:06.627Z,2.97
2019-05-05T23:45:34.094Z,3.07
2019-05-05T23:48:00.202Z,3.70
2019-05-05T23:50:26.253Z,3.40
2019-05-05T23:52:54.311Z,3.23
2019-05-05T23:55:20.230Z,3.17
2019-05-05T23:57:46.299Z,3.17
